Time;durP1;ratioP1;P1;durP2;ratioP2;P2;SDS_P1;SDS_P2;PMS_P1;PMS_P2;Temp;Humidity;BMP_temperature;BMP_pressure;BME280_temperature;BME280_humidity;BME280_pressure;Samples;Min_cycle;Max_cycle;Signal;HPM_P1;HPM_P2
2022/03/12 00:01:16;;;;;;;;;53.75;43.50;25.00;99.90;;;;;;5020118;28;8747;-66
2022/03/12 00:03:43;;;;;;;;;61.75;48.00;25.00;99.90;;;;;;5017981;28;8783;-66
2022/03/12 00:06:10;;;;;;;;;61.25;48.00;25.00;99.90;;;;;;5018371;28;8813;-66
2022/03/12 00:08:43;;;;;;;;;61.00;50.60;25.00;99.90;;;;;;5034327;28;8786;-66
2022/03/12 00:11:44;;;;;;;;;66.80;52.80;25.00;99.90;;;;;;5019395;28;9235;-66
2022/03/12 00:14:10;;;;;;;;;64.60;50.60;25.00;99.90;;;;;;4998769;28;8800;-66
2022/03/12 00:16:37;;;;;;;;;45.25;37.75;25.00;99.90;;;;;;4999332;28;8800;-65
2022/03/12 00:19:08;;;;;;;;;63.00;51.20;25.20;99.90;;;;;;5000343;28;8782;-66
2022/03/12 00:21:35;;;;;;;;;66.40;52.20;25.30;99.90;;;;;;4999457;28;8773;-67
2022/03/12 00:24:06;;;;;;;;;71.00;59.00;25.40;99.90;;;;;;4998405;28;9438;-66
2022/03/12 00:26:33;;;;;;;;;73.80;62.80;25.30;99.90;;;;;;4998271;28;8868;-66
2022/03/12 00:28:59;;;;;;;;;77.20;67.60;25.30;99.90;;;;;;5034583;28;8767;-66
2022/03/12 00:31:26;;;;;;;;;75.80;63.40;25.40;99.90;;;;;;5018797;28;8739;-65
2022/03/12 00:33:53;;;;;;;;;68.80;57.00;25.30;99.90;;;;;;5020046;28;8913;-66
2022/03/12 00:36:20;;;;;;;;;61.00;49.40;25.40;99.90;;;;;;5019341;28;8778;-66
2022/03/12 00:38:47;;;;;;;;;69.20;54.40;25.40;99.90;;;;;;5018227;28;9432;-66
2022/03/12 00:41:14;;;;;;;;;70.40;56.40;25.50;99.90;;;;;;5018400;28;8873;-66
2022/03/12 00:43:40;;;;;;;;;71.00;56.00;25.50;99.90;;;;;;5019443;28;8731;-66
2022/03/12 00:46:13;;;;;;;;;64.00;51.60;25.50;99.90;;;;;;5020036;28;8767;-66
2022/03/12 00:48:40;;;;;;;;;64.40;50.20;25.60;99.90;;;;;;5018847;28;8746;-66
2022/03/12 00:51:07;;;;;;;;;66.80;54.80;25.60;99.90;;;;;;5018774;28;8779;-66
2022/03/12 00:53:34;;;;;;;;;61.00;48.25;25.60;99.90;;;;;;5018846;28;8791;-66
2022/03/12 00:56:01;;;;;;;;;67.80;53.20;25.70;99.90;;;;;;5018943;28;8775;-66
2022/03/12 00:58:28;;;;;;;;;64.40;50.20;25.60;99.90;;;;;;5018308;28;8778;-66
2022/03/12 01:00:54;;;;;;;;;64.00;52.00;25.70;99.90;;;;;;5018122;28;8743;-66
2022/03/12 01:03:21;;;;;;;;;55.00;46.80;25.80;99.90;;;;;;5018668;28;8759;-65
2022/03/12 01:05:50;;;;;;;;;66.80;52.60;25.70;99.90;;;;;;5017676;28;8853;-66
2022/03/12 01:08:22;;;;;;;;;64.00;51.00;25.80;99.90;;;;;;5019577;28;8755;-65
2022/03/12 01:10:48;;;;;;;;;64.60;51.00;25.90;99.90;;;;;;5018398;28;8747;-66
2022/03/12 01:13:15;;;;;;;;;65.00;51.50;25.90;99.90;;;;;;5019366;28;8763;-66
2022/03/12 01:15:42;;;;;;;;;64.50;52.00;26.00;99.90;;;;;;5017811;28;8743;-65
2022/03/12 01:18:17;;;;;;;;;61.25;47.25;26.00;99.90;;;;;;5018248;28;8821;-66
2022/03/12 01:20:43;;;;;;;;;63.25;51.50;26.00;99.90;;;;;;5034574;28;8771;-66
2022/03/12 01:23:12;;;;;;;;;66.75;51.50;26.10;99.90;;;;;;5034150;28;8771;-66
2022/03/12 01:25:42;;;;;;;;;63.40;51.20;26.10;99.90;;;;;;5018421;28;8775;-66
2022/03/12 01:28:09;;;;;;;;;63.00;49.20;26.20;99.90;;;;;;5018753;28;8778;-66
2022/03/12 01:30:36;;;;;;;;;61.60;50.20;26.20;99.90;;;;;;5018295;28;8766;-66
2022/03/12 01:33:03;;;;;;;;;67.40;52.80;26.30;99.90;;;;;;5017069;28;8799;-66
2022/03/12 01:35:30;;;;;;;;;63.20;51.40;26.30;99.90;;;;;;5017979;28;8858;-65
2022/03/12 01:37:57;;;;;;;;;65.40;52.20;26.40;99.90;;;;;;5033304;28;8759;-65
2022/03/12 01:40:23;;;;;;;;;64.20;49.60;26.40;99.90;;;;;;5018803;28;8775;-65
2022/03/12 01:42:50;;;;;;;;;65.80;53.40;26.40;99.90;;;;;;5033577;28;8824;-65
2022/03/12 01:45:26;;;;;;;;;68.40;54.20;26.50;99.90;;;;;;5033270;28;8739;-64
2022/03/12 01:47:58;;;;;;;;;63.20;50.40;26.60;99.90;;;;;;5032083;28;9287;-66
2022/03/12 01:50:36;;;;;;;;;64.40;52.00;26.70;99.90;;;;;;5016629;28;8854;-66
2022/03/12 01:53:05;;;;;;;;;64.00;52.00;26.60;99.90;;;;;;5018067;28;9510;-66
2022/03/12 01:55:31;;;;;;;;;67.20;51.60;26.70;99.90;;;;;;5016524;28;8716;-65
2022/03/12 01:58:01;;;;;;;;;61.80;50.40;26.80;99.90;;;;;;5021839;28;8786;-66
2022/03/12 02:00:28;;;;;;;;;59.00;47.00;26.90;99.90;;;;;;4996991;28;9427;-66
2022/03/12 02:02:56;;;;;;;;;64.40;50.60;26.90;99.90;;;;;;4997101;28;8752;-66
2022/03/12 02:05:27;;;;;;;;;59.00;48.25;26.90;99.90;;;;;;4997533;28;8819;-65
2022/03/12 02:07:58;;;;;;;;;62.00;48.80;27.00;99.90;;;;;;4997087;28;8856;-66
2022/03/12 02:10:26;;;;;;;;;61.40;49.80;27.10;99.90;;;;;;4997915;28;8769;-63
2022/03/12 02:12:53;;;;;;;;;60.80;48.80;27.20;99.90;;;;;;5007582;28;8761;-66
2022/03/12 02:15:20;;;;;;;;;62.40;49.60;27.30;99.90;;;;;;5017485;28;8755;-65
2022/03/12 02:17:47;;;;;;;;;61.50;49.75;27.30;99.90;;;;;;5017636;28;8754;-65
2022/03/12 02:20:16;;;;;;;;;65.20;52.00;27.40;99.90;;;;;;5032819;28;8735;-65
2022/03/12 02:22:45;;;;;;;;;64.20;51.40;27.50;99.90;;;;;;5032765;28;8793;-65
2022/03/12 02:25:13;;;;;;;;;63.40;51.40;27.60;99.90;;;;;;5016838;28;8752;-66
2022/03/12 02:27:40;;;;;;;;;62.80;50.00;27.70;99.90;;;;;;5006747;28;8749;-65
2022/03/12 02:30:12;;;;;;;;;59.80;48.40;27.70;99.90;;;;;;4997588;28;9183;-65
2022/03/12 02:32:39;;;;;;;;;64.25;51.00;27.80;99.90;;;;;;4997685;28;8742;-65
2022/03/12 02:35:10;;;;;;;;;60.80;50.00;27.90;99.90;;;;;;4996483;28;8746;-65
2022/03/12 02:37:40;;;;;;;;;64.00;48.75;27.90;99.90;;;;;;4996381;28;8843;-65
2022/03/12 02:40:09;;;;;;;;;62.00;49.00;28.00;99.90;;;;;;4998268;28;8746;-65
2022/03/12 02:42:39;;;;;;;;;58.75;47.00;28.10;99.90;;;;;;5005636;28;9416;-66
2022/03/12 02:45:07;;;;;;;;;58.50;47.25;28.10;99.90;;;;;;5017165;28;8877;-65
2022/03/12 02:47:40;;;;;;;;;57.25;47.25;28.10;99.90;;;;;;5019012;28;8850;-66
2022/03/12 02:50:08;;;;;;;;;57.50;46.00;28.10;99.90;;;;;;5035974;28;8740;-66
2022/03/12 02:52:41;;;;;;;;;60.00;47.25;28.10;99.90;;;;;;5021457;28;8754;-66
2022/03/12 02:55:12;;;;;;;;;60.00;47.50;28.10;99.90;;;;;;5022251;28;8736;-66
2022/03/12 02:57:40;;;;;;;;;60.50;49.50;28.10;99.90;;;;;;5021541;28;8758;-65
2022/03/12 03:00:08;;;;;;;;;60.80;47.60;28.30;99.90;;;;;;5020113;28;8743;-66
2022/03/12 03:02:41;;;;;;;;;59.75;48.50;28.40;99.90;;;;;;5020940;28;8886;-66
2022/03/12 03:05:14;;;;;;;;;60.00;48.75;28.30;99.90;;;;;;5020679;28;8798;-66
2022/03/12 03:07:41;;;;;;;;;60.25;47.75;28.30;99.90;;;;;;5020813;28;8758;-66
2022/03/12 03:10:09;;;;;;;;;58.75;48.25;28.50;99.90;;;;;;5020344;28;8777;-66
2022/03/12 03:12:36;;;;;;;;;59.80;47.40;28.60;99.90;;;;;;5020422;28;8742;-65
2022/03/12 03:15:03;;;;;;;;;62.25;50.25;28.70;99.90;;;;;;5019594;28;8788;-65
2022/03/12 03:17:37;;;;;;;;;59.50;47.25;28.90;99.90;;;;;;5020596;28;8825;-66
2022/03/12 03:20:06;;;;;;;;;57.20;46.60;28.90;99.90;;;;;;5021144;28;8758;-66
2022/03/12 03:22:33;;;;;;;;;56.00;44.75;29.00;99.90;;;;;;5020440;28;9055;-66
2022/03/12 03:25:00;;;;;;;;;57.50;47.00;29.00;99.90;;;;;;5021154;28;8838;-66
2022/03/12 03:27:26;;;;;;;;;58.00;47.25;29.00;99.90;;;;;;5018642;28;8715;-65
2022/03/12 03:29:56;;;;;;;;;55.75;46.00;29.10;99.90;;;;;;5019235;28;8759;-66
2022/03/12 03:32:22;;;;;;;;;55.00;44.50;29.10;99.90;;;;;;5020284;28;8833;-64
2022/03/12 03:34:49;;;;;;;;;54.25;44.25;29.20;99.90;;;;;;5035780;28;8798;-65
2022/03/12 03:37:16;;;;;;;;;58.20;48.60;29.40;99.90;;;;;;5019777;28;8778;-65
2022/03/12 03:39:42;;;;;;;;;59.25;47.75;29.40;99.90;;;;;;5019136;28;8763;-65
2022/03/12 03:42:09;;;;;;;;;59.00;48.00;29.40;99.90;;;;;;5018863;28;8764;-64
2022/03/12 03:44:38;;;;;;;;;61.80;49.20;29.40;99.90;;;;;;5019084;28;9220;-65
2022/03/12 03:47:08;;;;;;;;;59.00;46.00;29.50;99.90;;;;;;5019064;28;8893;-65
2022/03/12 03:49:35;;;;;;;;;61.50;49.25;29.60;99.90;;;;;;5019503;28;8739;-65
2022/03/12 03:52:02;;;;;;;;;56.50;47.00;29.70;99.90;;;;;;5020414;28;8759;-65
2022/03/12 03:54:29;;;;;;;;;55.75;46.00;29.70;99.90;;;;;;5034982;28;8814;-65
2022/03/12 03:56:56;;;;;;;;;58.25;48.25;29.80;99.90;;;;;;5019808;28;8771;-66
2022/03/12 03:59:23;;;;;;;;;62.50;49.00;29.90;99.90;;;;;;5019195;28;8782;-65
2022/03/12 04:01:52;;;;;;;;;58.75;45.75;30.00;99.90;;;;;;5020195;28;8755;-65
2022/03/12 04:04:20;;;;;;;;;59.50;48.25;30.00;99.90;;;;;;5019937;28;9472;-64
2022/03/12 04:06:47;;;;;;;;;64.75;51.00;30.00;99.90;;;;;;5019637;28;8755;-65
2022/03/12 04:09:14;;;;;;;;;57.75;47.75;30.10;99.90;;;;;;5020102;28;8790;-65
2022/03/12 04:11:42;;;;;;;;;60.75;48.00;30.20;99.90;;;;;;5018220;28;9420;-65
2022/03/12 04:14:09;;;;;;;;;60.25;48.50;30.20;99.90;;;;;;5019623;28;9054;-66
2022/03/12 04:16:36;;;;;;;;;59.25;47.50;30.30;99.90;;;;;;5017661;28;8727;-66
2022/03/12 04:19:05;;;;;;;;;60.75;48.75;30.40;99.90;;;;;;5035374;28;8746;-66
2022/03/12 04:21:32;;;;;;;;;60.50;49.00;30.50;99.90;;;;;;5019560;28;9518;-65
2022/03/12 04:23:59;;;;;;;;;59.00;47.75;30.70;99.90;;;;;;5019918;28;8794;-65
2022/03/12 04:26:25;;;;;;;;;60.00;49.20;30.70;99.90;;;;;;5033962;28;8801;-65
2022/03/12 04:28:52;;;;;;;;;58.60;46.80;30.80;99.90;;;;;;5017748;28;8775;-65
2022/03/12 04:31:19;;;;;;;;;56.00;45.80;30.90;99.90;;;;;;5019452;28;8778;-65
2022/03/12 04:33:45;;;;;;;;;64.40;50.40;30.90;99.90;;;;;;5019020;28;8775;-65
2022/03/12 04:36:13;;;;;;;;;59.80;48.60;30.80;99.90;;;;;;5019223;28;8774;-66
2022/03/12 04:38:40;;;;;;;;;61.60;48.00;30.90;99.90;;;;;;5019043;28;8801;-65
2022/03/12 04:41:08;;;;;;;;;61.00;49.50;30.90;99.90;;;;;;5018673;28;9639;-65
2022/03/12 04:43:34;;;;;;;;;62.80;49.60;31.00;99.90;;;;;;5001064;28;8773;-65
2022/03/12 04:46:02;;;;;;;;;57.00;44.60;31.10;99.90;;;;;;4982773;28;8757;-65
2022/03/12 04:48:29;;;;;;;;;55.00;44.60;31.10;99.90;;;;;;4998611;28;8814;-65
2022/03/12 04:50:56;;;;;;;;;57.25;45.50;31.00;99.90;;;;;;4999365;28;8831;-65
2022/03/12 04:53:23;;;;;;;;;59.20;48.60;31.00;99.90;;;;;;4998605;28;8793;-64
2022/03/12 04:55:51;;;;;;;;;56.25;47.00;31.10;99.90;;;;;;4999445;28;8764;-65
2022/03/12 04:58:17;;;;;;;;;53.00;43.40;31.10;99.90;;;;;;5013470;28;8743;-64
2022/03/12 05:00:44;;;;;;;;;57.00;45.75;31.30;99.90;;;;;;5033759;28;8751;-65
2022/03/12 05:03:21;;;;;;;;;54.50;43.75;31.30;99.90;;;;;;5018416;28;8775;-65
2022/03/12 05:05:49;;;;;;;;;54.50;44.50;31.40;99.90;;;;;;5032885;28;8751;-65
2022/03/12 05:08:18;;;;;;;;;51.00;43.50;31.40;99.90;;;;;;5017043;28;8771;-65
2022/03/12 05:10:49;;;;;;;;;49.75;40.75;31.60;99.90;;;;;;5032429;28;9156;-65
2022/03/12 05:13:16;;;;;;;;;60.25;45.25;31.60;99.90;;;;;;5018729;28;8798;-65
2022/03/12 05:15:43;;;;;;;;;55.50;43.50;31.50;99.90;;;;;;5018164;28;8747;-65
2022/03/12 05:18:12;;;;;;;;;56.25;46.00;31.70;99.90;;;;;;5018280;28;8743;-65
2022/03/12 05:20:43;;;;;;;;;57.25;45.75;31.70;99.90;;;;;;5018025;28;8877;-65
2022/03/12 05:23:10;;;;;;;;;57.75;47.50;31.70;99.90;;;;;;5018163;28;8807;-65
2022/03/12 05:25:40;;;;;;;;;55.75;44.50;31.70;99.90;;;;;;5018016;28;8758;-64
2022/03/12 05:28:07;;;;;;;;;55.25;45.25;31.80;99.90;;;;;;5018026;28;8748;-65
2022/03/12 05:30:34;;;;;;;;;55.00;44.75;31.80;99.90;;;;;;5017787;28;8799;-65
2022/03/12 05:33:01;;;;;;;;;57.75;46.50;32.00;99.90;;;;;;5017468;28;8866;-65
2022/03/12 05:35:27;;;;;;;;;53.25;45.00;32.10;99.90;;;;;;5016657;28;8758;-65
2022/03/12 05:37:54;;;;;;;;;51.50;42.75;32.10;99.90;;;;;;5017431;28;9098;-64
2022/03/12 05:40:26;;;;;;;;;51.50;41.00;32.20;99.90;;;;;;5033085;28;8751;-64
2022/03/12 05:42:56;;;;;;;;;52.25;43.00;32.30;99.90;;;;;;5018000;28;8772;-64
2022/03/12 05:45:23;;;;;;;;;57.75;44.50;32.40;99.90;;;;;;5032099;28;8804;-64
2022/03/12 05:47:50;;;;;;;;;51.25;41.75;32.30;99.80;;;;;;5017793;28;8744;-64
2022/03/12 05:50:19;;;;;;;;;52.25;41.00;32.30;99.90;;;;;;5017714;28;8735;-64
2022/03/12 05:52:48;;;;;;;;;51.00;42.25;32.30;99.90;;;;;;5032679;28;8785;-65
2022/03/12 05:55:17;;;;;;;;;54.25;43.00;32.40;99.90;;;;;;5017997;28;8720;-65
2022/03/12 05:57:44;;;;;;;;;50.00;41.50;32.60;99.80;;;;;;5016081;28;8715;-65
2022/03/12 06:00:11;;;;;;;;;49.75;41.25;32.60;99.10;;;;;;5017277;28;9204;-65
2022/03/12 06:02:52;;;;;;;;;47.75;39.75;32.70;99.50;;;;;;5015752;28;8817;-65
2022/03/12 06:05:20;;;;;;;;;50.25;42.50;32.70;98.50;;;;;;5031141;28;8739;-64
2022/03/12 06:07:50;;;;;;;;;52.75;44.75;32.70;98.60;;;;;;5017285;28;9428;-65
2022/03/12 06:10:19;;;;;;;;;51.25;41.50;32.80;99.30;;;;;;5017942;28;8754;-64
2022/03/12 06:12:46;;;;;;;;;50.25;42.50;32.80;98.70;;;;;;5016796;28;8863;-64
2022/03/12 06:15:15;;;;;;;;;48.75;41.00;32.60;98.60;;;;;;5015787;28;8811;-65
2022/03/12 06:17:42;;;;;;;;;49.75;42.25;32.60;98.30;;;;;;5016128;28;8743;-64
2022/03/12 06:20:12;;;;;;;;;54.25;45.00;32.70;98.50;;;;;;5016839;28;8798;-64
2022/03/12 06:22:39;;;;;;;;;51.00;42.25;32.60;98.80;;;;;;5016684;28;8858;-64
2022/03/12 06:25:07;;;;;;;;;50.50;41.75;32.70;98.50;;;;;;5032731;28;8782;-65
2022/03/12 06:27:34;;;;;;;;;52.50;44.50;32.80;98.90;;;;;;5016624;28;8893;-64
2022/03/12 06:30:05;;;;;;;;;56.00;45.00;32.90;98.20;;;;;;5015771;28;8771;-65
2022/03/12 06:32:34;;;;;;;;;49.50;42.25;33.00;98.30;;;;;;5031331;28;8774;-64
2022/03/12 06:35:01;;;;;;;;;49.75;41.75;33.00;98.30;;;;;;5016818;28;8797;-65
2022/03/12 06:37:28;;;;;;;;;50.50;42.00;33.10;97.80;;;;;;5016364;28;8886;-64
2022/03/12 06:39:55;;;;;;;;;51.50;43.25;33.20;98.00;;;;;;5017867;28;8751;-65
2022/03/12 06:42:24;;;;;;;;;50.00;41.50;33.30;97.40;;;;;;5016524;28;8778;-64
2022/03/12 06:44:54;;;;;;;;;50.00;42.75;33.30;96.90;;;;;;5031682;28;8770;-65
2022/03/12 06:47:22;;;;;;;;;50.00;41.25;33.30;97.40;;;;;;5015251;28;8782;-66
2022/03/12 06:49:49;;;;;;;;;50.25;41.25;33.50;96.20;;;;;;5016846;28;8751;-65
2022/03/12 06:52:16;;;;;;;;;52.00;42.25;33.50;96.40;;;;;;5017398;28;8747;-65
2022/03/12 06:54:42;;;;;;;;;49.50;42.25;33.50;95.40;;;;;;5016565;28;8771;-65
2022/03/12 06:57:09;;;;;;;;;46.25;38.50;33.50;92.90;;;;;;5015309;28;8803;-64
2022/03/12 06:59:35;;;;;;;;;48.50;41.75;33.60;93.50;;;;;;5031679;28;8762;-65
2022/03/12 07:02:02;;;;;;;;;47.50;40.25;33.50;93.60;;;;;;5015363;28;8755;-65
2022/03/12 07:04:29;;;;;;;;;46.50;38.00;33.50;93.40;;;;;;5014824;28;8794;-64
2022/03/12 07:06:55;;;;;;;;;48.00;40.50;33.60;92.80;;;;;;5017249;28;8816;-65
2022/03/12 07:09:22;;;;;;;;;47.75;40.50;33.60;93.20;;;;;;5016504;28;8873;-64
2022/03/12 07:11:50;;;;;;;;;41.75;36.75;33.80;93.30;;;;;;5031653;28;8774;-64
2022/03/12 07:14:17;;;;;;;;;50.00;42.25;33.70;92.20;;;;;;5031380;28;8771;-64
2022/03/12 07:16:43;;;;;;;;;49.00;41.50;33.60;91.90;;;;;;5031661;28;8762;-64
2022/03/12 07:19:10;;;;;;;;;47.75;40.50;33.60;92.70;;;;;;5017229;28;8732;-65
2022/03/12 07:21:37;;;;;;;;;47.75;40.75;33.80;93.70;;;;;;5014795;28;8774;-65
2022/03/12 07:24:04;;;;;;;;;50.00;42.00;33.70;91.90;;;;;;5016537;28;8802;-64
2022/03/12 07:26:30;;;;;;;;;49.50;42.25;33.70;92.50;;;;;;5016283;28;8779;-64
2022/03/12 07:28:57;;;;;;;;;50.75;39.50;33.70;93.10;;;;;;5031349;28;8763;-64
2022/03/12 07:31:23;;;;;;;;;48.50;39.25;33.80;92.70;;;;;;5016647;28;8813;-64
2022/03/12 07:33:50;;;;;;;;;49.00;41.00;33.90;93.70;;;;;;5033712;28;8793;-65
2022/03/12 07:36:20;;;;;;;;;50.25;41.50;33.90;92.50;;;;;;5018989;28;8746;-63
2022/03/12 07:38:47;;;;;;;;;52.00;41.75;34.00;92.00;;;;;;5035157;28;8771;-65
2022/03/12 07:41:13;;;;;;;;;51.50;43.00;34.00;91.00;;;;;;5020171;28;8759;-65
2022/03/12 07:43:40;;;;;;;;;55.00;44.25;34.10;90.00;;;;;;5018430;28;8747;-64
2022/03/12 07:46:06;;;;;;;;;50.25;40.75;34.10;89.90;;;;;;5019486;28;8755;-65
2022/03/12 07:48:36;;;;;;;;;47.75;39.75;34.00;90.80;;;;;;5019653;28;8773;-65
2022/03/12 07:51:03;;;;;;;;;49.25;40.25;34.00;88.80;;;;;;5020008;28;8781;-65
2022/03/12 07:53:30;;;;;;;;;48.67;40.00;34.10;88.30;;;;;;5019861;28;9365;-65
2022/03/12 07:55:57;;;;;;;;;51.50;42.00;34.10;85.70;;;;;;5019211;28;8773;-65
2022/03/12 07:58:23;;;;;;;;;50.00;41.25;34.20;84.30;;;;;;5004302;28;8772;-65
2022/03/12 08:00:50;;;;;;;;;49.50;40.75;34.30;84.70;;;;;;4999899;28;8771;-65
2022/03/12 08:03:18;;;;;;;;;50.50;41.50;34.30;88.00;;;;;;5000176;28;8809;-64
2022/03/12 08:05:45;;;;;;;;;51.25;40.25;34.30;88.00;;;;;;4998593;28;8754;-66
2022/03/12 08:08:12;;;;;;;;;45.00;38.75;34.40;87.90;;;;;;4999963;28;8765;-66
2022/03/12 08:13:25;;;;;;;;;49.25;40.00;34.50;86.00;;;;;;4993176;28;8755;-64
2022/03/12 08:15:52;;;;;;;;;49.00;40.00;34.40;86.20;;;;;;5020019;28;8758;-65
2022/03/12 08:18:18;;;;;;;;;48.50;42.00;34.30;85.60;;;;;;5018846;28;8735;-64
2022/03/12 08:20:45;;;;;;;;;47.00;39.50;34.30;86.50;;;;;;5018876;28;8734;-64
2022/03/12 08:23:12;;;;;;;;;51.75;43.50;34.40;87.50;;;;;;5017894;28;8731;-64
2022/03/12 08:25:39;;;;;;;;;47.25;40.50;34.50;86.80;;;;;;5019239;28;8832;-64
2022/03/12 08:28:06;;;;;;;;;47.50;39.00;34.50;86.20;;;;;;5019656;28;8751;-65
2022/03/12 08:30:34;;;;;;;;;47.00;37.50;34.40;86.00;;;;;;5018748;28;8810;-64
2022/03/12 08:33:01;;;;;;;;;51.00;40.25;34.40;88.30;;;;;;5017954;28;8888;-65
2022/03/12 08:35:31;;;;;;;;;50.75;42.00;34.40;85.10;;;;;;5018844;28;8775;-64
2022/03/12 08:37:58;;;;;;;;;45.00;38.00;34.50;86.70;;;;;;5017594;28;9451;-64
2022/03/12 08:40:28;;;;;;;;;48.75;39.50;34.40;87.30;;;;;;5018508;28;8759;-63
2022/03/12 08:42:54;;;;;;;;;48.50;40.00;34.50;86.50;;;;;;5018007;28;8755;-64
2022/03/12 08:45:21;;;;;;;;;49.50;40.50;34.50;85.50;;;;;;5018608;28;8850;-65
2022/03/12 08:47:48;;;;;;;;;54.75;41.75;34.50;85.70;;;;;;5018797;28;8786;-65
2022/03/12 08:50:14;;;;;;;;;47.25;40.00;34.50;84.20;;;;;;5019446;28;8778;-65
2022/03/12 08:52:42;;;;;;;;;49.50;41.50;34.40;83.50;;;;;;5033524;28;8735;-65
2022/03/12 08:55:09;;;;;;;;;50.00;40.00;34.50;83.60;;;;;;5017878;28;8814;-64
2022/03/12 08:57:36;;;;;;;;;47.00;39.25;34.40;83.70;;;;;;5017034;28;8759;-65
2022/03/12 09:00:05;;;;;;;;;48.50;38.75;34.30;83.10;;;;;;5017390;28;8794;-65
2022/03/12 09:02:36;;;;;;;;;48.00;40.00;34.50;81.30;;;;;;5033462;28;8869;-64
2022/03/12 09:05:04;;;;;;;;;49.25;41.00;34.60;81.90;;;;;;5018165;28;8775;-64
2022/03/12 09:07:31;;;;;;;;;38.00;33.50;34.40;80.90;;;;;;5017070;28;8786;-64
2022/03/12 09:09:58;;;;;;;;;45.25;38.00;34.40;82.10;;;;;;5017851;28;8774;-65
2022/03/12 09:12:25;;;;;;;;;44.50;37.50;34.40;81.90;;;;;;5018161;28;8759;-64
2022/03/12 09:14:53;;;;;;;;;45.00;38.75;34.40;82.60;;;;;;5017926;28;8790;-64
2022/03/12 09:17:20;;;;;;;;;45.00;37.75;34.30;84.30;;;;;;5018127;28;8751;-64
2022/03/12 09:19:49;;;;;;;;;48.50;41.00;34.30;84.10;;;;;;5018151;28;8782;-64
2022/03/12 09:22:16;;;;;;;;;47.75;40.00;34.50;81.80;;;;;;5018935;28;8743;-65
2022/03/12 09:24:43;;;;;;;;;49.00;41.50;34.50;81.70;;;;;;5018392;28;8751;-66
2022/03/12 09:27:09;;;;;;;;;47.25;38.50;34.40;82.10;;;;;;5033346;28;8798;-65
2022/03/12 09:29:36;;;;;;;;;48.75;40.00;34.40;82.40;;;;;;5032692;28;8770;-66
2022/03/12 09:32:05;;;;;;;;;49.00;41.25;34.40;82.30;;;;;;5018176;28;8743;-65
2022/03/12 09:34:34;;;;;;;;;50.50;40.00;34.30;81.10;;;;;;5015955;28;8805;-64
2022/03/12 09:37:02;;;;;;;;;47.00;38.25;34.30;80.90;;;;;;5018338;28;8750;-65
2022/03/12 09:39:28;;;;;;;;;49.50;41.50;34.30;81.20;;;;;;5017632;28;8845;-64
2022/03/12 09:41:55;;;;;;;;;39.00;33.25;34.30;80.90;;;;;;5017718;28;8803;-65
2022/03/12 09:44:21;;;;;;;;;47.00;39.00;34.30;81.20;;;;;;5017807;28;8771;-64
2022/03/12 09:46:48;;;;;;;;;46.00;37.67;34.30;81.50;;;;;;5032357;28;8774;-64
2022/03/12 09:49:15;;;;;;;;;46.00;38.75;34.30;82.60;;;;;;5018246;28;8758;-65
2022/03/12 09:51:42;;;;;;;;;49.50;41.50;34.30;82.10;;;;;;5017360;28;8739;-64
2022/03/12 09:54:09;;;;;;;;;50.00;40.00;34.20;81.60;;;;;;5017219;28;8814;-64
2022/03/12 09:56:39;;;;;;;;;50.00;41.00;34.20;82.40;;;;;;5015531;28;8864;-65
2022/03/12 09:59:05;;;;;;;;;48.00;40.25;34.10;83.30;;;;;;5017359;28;8770;-65
2022/03/12 10:01:32;;;;;;;;;44.00;38.50;34.10;82.40;;;;;;5017113;28;8821;-64
2022/03/12 10:03:59;;;;;;;;;47.75;40.00;34.10;82.10;;;;;;5018035;28;8841;-64
2022/03/12 10:06:26;;;;;;;;;50.75;42.00;34.10;81.40;;;;;;5017110;28;8755;-64
2022/03/12 10:08:56;;;;;;;;;48.75;41.50;34.10;81.00;;;;;;5017272;28;8743;-64
2022/03/12 10:11:24;;;;;;;;;47.25;38.75;34.00;83.80;;;;;;5016015;28;8757;-65
2022/03/12 10:13:50;;;;;;;;;48.50;39.75;33.90;84.30;;;;;;5017149;28;8910;-65
2022/03/12 10:16:18;;;;;;;;;46.50;38.00;33.90;84.40;;;;;;5017950;28;8719;-64
2022/03/12 10:18:46;;;;;;;;;41.50;35.50;33.80;84.30;;;;;;5016085;28;8755;-64
2022/03/12 10:21:14;;;;;;;;;47.75;40.50;33.70;85.30;;;;;;5017029;28;8837;-64
2022/03/12 10:23:41;;;;;;;;;49.50;41.25;33.70;85.90;;;;;;5031813;28;8762;-64
2022/03/12 10:26:07;;;;;;;;;47.25;40.75;33.70;85.80;;;;;;5017454;28;8735;-64
2022/03/12 10:28:37;;;;;;;;;48.75;40.00;33.60;85.20;;;;;;5032113;28;8723;-64
2022/03/12 10:31:05;;;;;;;;;49.75;41.25;33.60;84.60;;;;;;5018067;28;8739;-64
2022/03/12 10:33:31;;;;;;;;;46.25;39.50;33.60;84.10;;;;;;5031957;28;8771;-64
2022/03/12 10:36:11;;;;;;;;;51.00;41.00;33.50;85.00;;;;;;5031998;28;8944;-65
2022/03/12 10:38:39;;;;;;;;;50.50;41.50;33.40;86.00;;;;;;5015752;28;9145;-64
2022/03/12 10:41:07;;;;;;;;;48.75;41.00;33.40;86.20;;;;;;5017254;28;8727;-65
2022/03/12 10:43:54;;;;;;;;;44.50;38.00;33.40;86.40;;;;;;5014927;28;9506;-64
2022/03/12 10:46:29;;;;;;;;;44.00;36.25;33.30;86.80;;;;;;4980322;28;8746;-64
2022/03/12 10:48:59;;;;;;;;;48.50;41.00;33.20;87.10;;;;;;4997757;28;8758;-64
2022/03/12 10:51:30;;;;;;;;;50.00;43.00;33.20;86.90;;;;;;4996768;28;8769;-65
2022/03/12 10:54:07;;;;;;;;;48.75;41.25;33.20;86.40;;;;;;4997297;28;8821;-65
2022/03/12 10:56:50;;;;;;;;;48.50;40.25;33.10;86.60;;;;;;4997303;28;8867;-65
2022/03/12 10:59:21;;;;;;;;;51.00;41.75;33.10;87.10;;;;;;4997082;28;8792;-65
2022/03/12 11:01:52;;;;;;;;;53.25;42.00;33.10;88.30;;;;;;4995936;28;8843;-65
2022/03/12 11:04:23;;;;;;;;;50.75;41.50;33.00;89.60;;;;;;4997422;28;8738;-64
2022/03/12 11:06:57;;;;;;;;;42.00;35.50;32.90;89.60;;;;;;5012098;28;8820;-65
2022/03/12 11:09:37;;;;;;;;;52.25;42.50;32.90;90.10;;;;;;4999875;28;8761;-64
2022/03/12 11:12:29;;;;;;;;;49.00;40.00;32.90;90.40;;;;;;5004500;28;8890;-64
2022/03/12 11:15:06;;;;;;;;;50.50;41.50;32.70;90.80;;;;;;5020389;28;8783;-64
2022/03/12 11:17:44;;;;;;;;;49.75;40.75;32.70;91.90;;;;;;5020326;28;8771;-64
2022/03/12 11:20:28;;;;;;;;;52.50;42.50;32.60;91.80;;;;;;5020478;28;8855;-65
2022/03/12 11:23:27;;;;;;;;;50.25;42.75;32.50;91.90;;;;;;5036037;28;8777;-65
2022/03/12 11:26:06;;;;;;;;;52.25;42.50;32.50;92.70;;;;;;5020820;28;8799;-64
2022/03/12 11:28:35;;;;;;;;;48.50;40.75;32.50;93.00;;;;;;5015527;28;9565;-64
2022/03/12 11:31:07;;;;;;;;;56.20;45.80;32.40;92.20;;;;;;5000207;28;8753;-65
2022/03/12 11:33:35;;;;;;;;;56.00;44.50;32.40;91.50;;;;;;5000218;28;8812;-64
2022/03/12 11:36:10;;;;;;;;;55.00;45.25;32.30;91.80;;;;;;5000613;28;8859;-65
2022/03/12 11:38:36;;;;;;;;;54.75;45.00;32.30;92.10;;;;;;4984203;28;8781;-64
2022/03/12 11:41:11;;;;;;;;;57.25;46.50;32.30;92.90;;;;;;5000261;28;8773;-65
2022/03/12 11:43:42;;;;;;;;;53.75;44.50;32.20;93.40;;;;;;5000549;28;8781;-64
2022/03/12 11:46:11;;;;;;;;;50.50;42.00;32.10;94.20;;;;;;4999892;28;8762;-64
2022/03/12 11:48:38;;;;;;;;;44.25;35.75;32.10;95.20;;;;;;5015111;28;8804;-65
2022/03/12 11:51:29;;;;;;;;;53.25;45.00;32.10;94.80;;;;;;5000336;28;8839;-65
2022/03/12 11:53:56;;;;;;;;;53.50;41.75;32.00;94.50;;;;;;5000306;28;8796;-65
2022/03/12 11:56:25;;;;;;;;;53.75;44.25;31.90;95.10;;;;;;4999962;28;8843;-64
2022/03/12 11:58:52;;;;;;;;;52.75;43.00;31.80;94.70;;;;;;5018013;28;9423;-65
2022/03/12 12:01:22;;;;;;;;;50.00;41.00;31.70;94.50;;;;;;5020132;28;8747;-64
2022/03/12 12:03:50;;;;;;;;;62.00;49.00;31.70;94.40;;;;;;5019615;28;8817;-65
2022/03/12 12:06:17;;;;;;;;;60.40;49.60;31.60;99.50;;;;;;5019096;28;8817;-64
2022/03/12 12:08:43;;;;;;;;;67.20;54.20;31.50;99.30;;;;;;5019656;28;8786;-64
2022/03/12 12:11:14;;;;;;;;;61.80;49.60;31.50;99.60;;;;;;5019378;28;9463;-65
2022/03/12 12:13:44;;;;;;;;;56.80;45.60;31.50;97.40;;;;;;5017423;28;8763;-64
2022/03/12 12:16:11;;;;;;;;;59.50;46.25;31.50;99.40;;;;;;5019648;28;9510;-65
2022/03/12 12:18:38;;;;;;;;;57.00;44.60;31.50;99.70;;;;;;5033426;28;8767;-65
2022/03/12 12:21:04;;;;;;;;;55.00;44.40;31.50;99.50;;;;;;5019475;28;9412;-64
2022/03/12 12:23:31;;;;;;;;;57.00;46.00;31.40;99.50;;;;;;5017744;28;8786;-64
2022/03/12 12:26:08;;;;;;;;;54.00;44.20;31.30;99.90;;;;;;5019176;28;8763;-64
2022/03/12 12:28:49;;;;;;;;;62.20;48.80;31.30;99.90;;;;;;5017103;28;9448;-64
2022/03/12 12:31:22;;;;;;;;;61.00;48.40;31.20;99.90;;;;;;5019634;28;8735;-65
2022/03/12 12:33:49;;;;;;;;;61.20;48.20;31.30;98.70;;;;;;5018892;28;8798;-64
2022/03/12 12:36:21;;;;;;;;;61.25;47.00;31.30;99.90;;;;;;5018886;28;8774;-65
2022/03/12 12:39:13;;;;;;;;;61.40;47.80;31.20;96.40;;;;;;5018783;28;8799;-65
2022/03/12 12:41:53;;;;;;;;;69.80;54.40;31.40;96.10;;;;;;5017781;28;8771;-64
2022/03/12 12:44:41;;;;;;;;;62.20;49.00;31.40;96.00;;;;;;4992564;28;8766;-64
2022/03/12 12:47:10;;;;;;;;;62.80;50.20;31.40;95.60;;;;;;5019213;28;8775;-65